createdAt,value
2023-12-09T00:00:59.257Z,3.30
2023-12-09T00:03:02.024Z,3.15
2023-12-09T00:05:05.046Z,3.20
2023-12-09T00:07:07.769Z,2.80
2023-12-09T00:09:09.496Z,2.95
2023-12-09T00:11:12.172Z,2.92
2023-12-09T00:13:13.776Z,3.65
2023-12-09T00:15:16.388Z,2.92
2023-12-09T00:17:20.387Z,3.33
2023-12-09T00:19:22.243Z,3.10
2023-12-09T00:21:25.096Z,3.00
2023-12-09T00:23:27.752Z,2.80
2023-12-09T00:25:30.380Z,3.15
2023-12-09T00:27:32.978Z,3.47
2023-12-09T00:29:35.679Z,3.22
2023-12-09T00:31:38.353Z,2.97
2023-12-09T00:33:42.833Z,3.45
2023-12-09T00:35:45.618Z,3.50
2023-12-09T00:37:48.324Z,2.95
2023-12-09T00:39:50.919Z,3.13
2023-12-09T00:41:53.610Z,3.28
2023-12-09T00:43:56.233Z,2.80
2023-12-09T00:45:58.241Z,3.50
2023-12-09T00:48:01.507Z,2.83
2023-12-09T00:50:06.779Z,3.13
2023-12-09T00:52:09.363Z,2.97
2023-12-09T00:54:12.052Z,2.83
2023-12-09T00:56:15.026Z,3.13
2023-12-09T00:58:35.697Z,2.97
2023-12-09T01:00:37.420Z,3.17
2023-12-09T01:02:40.632Z,3.45
2023-12-09T01:04:43.805Z,3.53
2023-12-09T01:06:47.821Z,3.13
2023-12-09T01:08:50.490Z,2.90
2023-12-09T01:10:53.439Z,3.40
2023-12-09T01:12:56.162Z,3.28
2023-12-09T01:14:58.789Z,3.83
2023-12-09T01:17:01.522Z,3.33
2023-12-09T01:19:04.564Z,3.10
2023-12-09T01:21:07.353Z,3.22
2023-12-09T01:23:11.710Z,3.40
2023-12-09T01:25:13.365Z,3.35
2023-12-09T01:27:15.984Z,3.15
2023-12-09T01:29:18.757Z,3.35
2023-12-09T01:31:21.391Z,3.53
2023-12-09T01:33:24.125Z,3.20
2023-12-09T01:35:26.861Z,3.05
2023-12-09T01:37:29.575Z,3.20
2023-12-09T01:39:33.590Z,2.97
2023-12-09T01:41:37.978Z,2.90
2023-12-09T01:43:40.571Z,2.90
2023-12-09T01:45:43.973Z,3.17
2023-12-09T01:47:46.813Z,3.20
2023-12-09T01:49:49.593Z,3.17
2023-12-09T01:51:52.401Z,3.10
2023-12-09T01:53:55.481Z,2.97
2023-12-09T01:55:59.796Z,3.00
2023-12-09T01:58:02.601Z,2.78
2023-12-09T02:00:05.671Z,3.40
2023-12-09T02:02:08.668Z,2.70
2023-12-09T02:04:11.381Z,3.03
2023-12-09T02:06:13.068Z,3.10
2023-12-09T02:08:16.135Z,3.40
2023-12-09T02:10:19.067Z,2.72
2023-12-09T02:12:25.632Z,2.47
2023-12-09T02:14:31.814Z,3.20
2023-12-09T02:16:38.929Z,2.80
2023-12-09T02:18:42.713Z,3.05
2023-12-09T02:20:45.777Z,3.20
2023-12-09T02:22:48.529Z,2.88
2023-12-09T02:24:52.636Z,2.45
2023-12-09T02:26:55.596Z,3.08
2023-12-09T02:29:02.602Z,2.85
2023-12-09T02:31:11.508Z,2.80
2023-12-09T02:33:16.934Z,3.00
2023-12-09T02:35:21.136Z,2.92
2023-12-09T02:37:23.042Z,2.60
2023-12-09T02:39:26.426Z,2.80
2023-12-09T02:41:30.945Z,2.83
2023-12-09T02:43:32.746Z,3.17
2023-12-09T02:45:35.349Z,2.80
2023-12-09T02:47:38.021Z,2.83
2023-12-09T02:49:40.861Z,2.40
2023-12-09T02:51:43.657Z,3.15
2023-12-09T02:53:46.612Z,3.00
2023-12-09T02:55:48.241Z,2.67
2023-12-09T02:57:52.242Z,2.78
2023-12-09T02:59:54.800Z,2.83
2023-12-09T03:01:57.484Z,2.78
2023-12-09T03:03:59.257Z,2.70
2023-12-09T03:06:01.939Z,3.13
2023-12-09T03:08:04.749Z,2.67
2023-12-09T03:10:07.704Z,2.58
2023-12-09T03:12:10.344Z,2.58
2023-12-09T03:14:14.441Z,2.75
2023-12-09T03:16:17.164Z,2.80
2023-12-09T03:18:19.905Z,2.80
2023-12-09T03:20:23.217Z,2.85
2023-12-09T03:22:26.070Z,2.80
2023-12-09T03:24:28.091Z,3.05
2023-12-09T03:26:30.767Z,2.90
2023-12-09T03:28:33.322Z,2.60
2023-12-09T03:30:37.436Z,2.85
2023-12-09T03:32:39.333Z,2.75
2023-12-09T03:34:42.201Z,2.60
2023-12-09T03:36:45.008Z,3.03
2023-12-09T03:38:47.571Z,2.90
2023-12-09T03:40:50.134Z,2.65
2023-12-09T03:42:52.805Z,2.90
2023-12-09T03:44:54.493Z,3.05
2023-12-09T03:46:58.484Z,2.60
2023-12-09T03:49:01.152Z,3.20
2023-12-09T03:51:03.951Z,2.53
2023-12-09T03:53:06.613Z,2.75
2023-12-09T03:55:10.552Z,2.95
2023-12-09T03:57:14.496Z,3.00
2023-12-09T03:59:17.441Z,3.10
2023-12-09T04:01:19.230Z,3.25
2023-12-09T04:03:23.281Z,2.47
2023-12-09T04:05:26.603Z,2.60
2023-12-09T04:07:29.220Z,2.83
2023-12-09T04:09:30.893Z,2.88
2023-12-09T04:11:33.470Z,3.08
2023-12-09T04:13:36.137Z,2.92
2023-12-09T04:15:39.764Z,2.75
2023-12-09T04:17:42.659Z,2.60
2023-12-09T04:19:46.711Z,2.72
2023-12-09T04:21:49.385Z,2.45
2023-12-09T04:23:52.080Z,2.70
2023-12-09T04:25:54.677Z,2.40
2023-12-09T04:27:56.264Z,2.67
2023-12-09T04:29:58.905Z,2.58
2023-12-09T04:32:01.638Z,2.88
2023-12-09T04:34:04.404Z,2.50
2023-12-09T04:36:09.164Z,2.28
2023-12-09T04:38:11.920Z,2.90
2023-12-09T04:40:17.149Z,2.75
2023-12-09T04:42:21.315Z,2.53
2023-12-09T04:44:25.999Z,2.72
2023-12-09T04:46:29.511Z,2.47
2023-12-09T04:48:32.231Z,2.53
2023-12-09T04:50:35.114Z,2.67
2023-12-09T04:52:39.279Z,2.70
2023-12-09T04:54:40.975Z,2.80
2023-12-09T04:56:44.426Z,2.53
2023-12-09T04:58:47.259Z,3.00
2023-12-09T05:00:49.955Z,2.83
2023-12-09T05:02:52.611Z,2.47
2023-12-09T05:04:55.176Z,2.42
2023-12-09T05:06:57.752Z,2.03
2023-12-09T05:09:01.814Z,2.67
2023-12-09T05:11:04.643Z,2.83
2023-12-09T05:13:07.298Z,2.42
2023-12-09T05:15:11.035Z,2.45
2023-12-09T05:17:13.685Z,2.35
2023-12-09T05:19:16.321Z,2.45
2023-12-09T05:21:19.121Z,2.65
2023-12-09T05:23:22.376Z,2.25
2023-12-09T05:25:26.367Z,2.67
2023-12-09T05:27:29.050Z,2.42
2023-12-09T05:29:31.689Z,2.15
2023-12-09T05:31:34.853Z,2.47
2023-12-09T05:33:37.808Z,2.33
2023-12-09T05:35:40.593Z,2.50
2023-12-09T05:37:43.673Z,2.00
2023-12-09T05:39:46.359Z,2.70
2023-12-09T05:41:50.565Z,2.03
2023-12-09T05:43:53.160Z,2.10
2023-12-09T05:45:55.905Z,2.35
2023-12-09T05:47:58.871Z,2.20
2023-12-09T05:50:01.848Z,2.30
2023-12-09T05:52:04.702Z,2.40
2023-12-09T05:54:07.451Z,2.20
2023-12-09T05:56:09.775Z,2.33
2023-12-09T05:58:14.757Z,2.20
2023-12-09T06:00:17.592Z,2.35
2023-12-09T06:02:20.309Z,2.08
2023-12-09T06:04:22.142Z,2.60
2023-12-09T06:06:24.885Z,2.08
2023-12-09T06:08:27.532Z,2.40
2023-12-09T06:10:30.234Z,2.38
2023-12-09T06:12:33.016Z,2.05
2023-12-09T06:14:37.041Z,2.20
2023-12-09T06:16:39.682Z,2.10
2023-12-09T06:18:41.396Z,2.08
2023-12-09T06:20:44.002Z,1.92
2023-12-09T06:22:46.634Z,2.15
2023-12-09T06:24:49.428Z,2.08
2023-12-09T06:26:51.151Z,1.60
2023-12-09T06:28:53.926Z,1.85
2023-12-09T06:30:57.878Z,2.10
2023-12-09T06:33:00.603Z,1.55
2023-12-09T06:35:02.627Z,1.90
2023-12-09T06:37:05.343Z,1.95
2023-12-09T06:39:08.121Z,1.92
2023-12-09T06:41:10.779Z,1.77
2023-12-09T06:43:13.600Z,2.10
2023-12-09T06:45:16.214Z,1.83
2023-12-09T06:47:20.240Z,2.00
2023-12-09T06:49:23.070Z,1.90
2023-12-09T06:51:26.287Z,1.75
2023-12-09T06:53:29.049Z,1.55
2023-12-09T06:55:30.703Z,1.80
2023-12-09T06:57:33.513Z,1.77
2023-12-09T06:59:35.188Z,2.08
2023-12-09T07:01:37.983Z,1.77
2023-12-09T07:03:42.471Z,1.50
2023-12-09T07:05:45.400Z,1.60
2023-12-09T07:07:49.858Z,1.67
2023-12-09T07:09:52.469Z,1.88
2023-12-09T07:12:01.859Z,1.55
2023-12-09T07:14:05.426Z,1.42
2023-12-09T07:16:09.324Z,1.70
2023-12-09T07:18:12.233Z,1.58
2023-12-09T07:20:16.358Z,1.63
2023-12-09T07:22:19.006Z,1.77
2023-12-09T07:24:20.797Z,1.52
2023-12-09T07:26:23.376Z,1.13
2023-12-09T07:28:26.046Z,1.40
2023-12-09T07:30:28.919Z,1.70
2023-12-09T07:32:30.858Z,1.73
2023-12-09T07:34:33.801Z,1.25
2023-12-09T07:36:37.844Z,1.58
2023-12-09T07:38:40.404Z,1.60
2023-12-09T07:40:42.284Z,1.27
2023-12-09T07:42:45.050Z,1.50
2023-12-09T07:44:46.838Z,1.50
2023-12-09T07:46:49.555Z,1.42
2023-12-09T07:48:51.404Z,1.40
2023-12-09T07:50:55.018Z,1.40
2023-12-09T07:52:59.213Z,1.42
2023-12-09T07:55:01.852Z,1.77
2023-12-09T07:57:04.707Z,1.30
2023-12-09T07:59:07.339Z,1.35
2023-12-09T08:01:11.380Z,1.27
2023-12-09T08:03:14.955Z,1.48
2023-12-09T08:05:16.938Z,1.20
2023-12-09T08:07:19.739Z,1.48
2023-12-09T08:09:23.871Z,1.50
2023-12-09T08:11:26.532Z,1.38
2023-12-09T08:13:29.132Z,1.30
2023-12-09T08:15:31.888Z,1.50
2023-12-09T08:17:33.612Z,1.48
2023-12-09T08:19:36.387Z,1.30
2023-12-09T08:21:39.160Z,1.48
2023-12-09T08:23:41.859Z,1.33
2023-12-09T08:25:45.968Z,1.45
2023-12-09T08:27:48.544Z,1.42
2023-12-09T08:29:50.242Z,1.00
2023-12-09T08:31:52.975Z,1.30
2023-12-09T08:33:55.752Z,1.25
2023-12-09T08:35:58.481Z,1.50
2023-12-09T08:38:00.227Z,1.17
2023-12-09T08:40:07.057Z,1.05
2023-12-09T08:42:11.202Z,1.40
2023-12-09T08:44:13.799Z,1.27
2023-12-09T08:46:15.530Z,1.10
2023-12-09T08:48:19.090Z,1.10
2023-12-09T08:50:24.545Z,1.23
2023-12-09T08:52:28.663Z,1.10
2023-12-09T08:54:31.526Z,1.17
2023-12-09T08:56:34.299Z,1.40
2023-12-09T08:58:38.259Z,1.00
2023-12-09T09:00:41.124Z,1.17
2023-12-09T09:02:43.809Z,1.15
2023-12-09T09:04:46.412Z,0.90
2023-12-09T09:06:49.073Z,1.40
2023-12-09T09:08:51.659Z,1.90
2023-12-09T09:10:54.794Z,1.60
2023-12-09T09:12:56.518Z,6.53
2023-12-09T09:15:04.586Z,4.75
2023-12-09T09:17:09.502Z,4.18
2023-12-09T09:19:12.281Z,3.70
2023-12-09T09:21:14.993Z,3.08
2023-12-09T09:23:17.620Z,3.13
2023-12-09T09:25:20.200Z,3.00
2023-12-09T09:27:22.866Z,2.90
2023-12-09T09:29:25.877Z,2.90
2023-12-09T09:31:30.027Z,2.42
2023-12-09T09:33:32.787Z,2.17
2023-12-09T09:35:35.538Z,2.60
2023-12-09T09:37:37.327Z,2.25
2023-12-09T09:39:40.045Z,1.80
2023-12-09T09:41:47.496Z,1.60
2023-12-09T09:43:53.387Z,1.50
2023-12-09T09:45:58.306Z,1.10
2023-12-09T09:48:04.447Z,1.58
2023-12-09T09:50:08.950Z,1.23
2023-12-09T09:52:12.061Z,1.10
2023-12-09T09:54:17.266Z,1.13
2023-12-09T09:56:20.320Z,1.05
2023-12-09T09:58:23.036Z,1.20
2023-12-09T10:00:29.701Z,1.25
2023-12-09T10:02:33.428Z,1.05
2023-12-09T10:04:38.062Z,0.98
2023-12-09T10:06:41.735Z,0.98
2023-12-09T10:08:44.216Z,1.10
2023-12-09T10:10:47.318Z,0.90
2023-12-09T10:12:50.116Z,0.85
2023-12-09T10:14:52.879Z,0.90
2023-12-09T10:16:54.812Z,0.82
2023-12-09T10:18:58.220Z,0.82
2023-12-09T10:21:02.431Z,0.95
2023-12-09T10:23:05.178Z,0.88
2023-12-09T10:25:08.396Z,1.20
2023-12-09T10:27:11.196Z,0.88
2023-12-09T10:29:14.006Z,1.10
2023-12-09T10:31:16.652Z,1.00
2023-12-09T10:33:19.526Z,1.00
2023-12-09T10:35:22.404Z,0.95
2023-12-09T10:37:28.532Z,1.20
2023-12-09T10:39:31.278Z,1.00
2023-12-09T10:41:33.512Z,1.27
2023-12-09T10:43:36.176Z,1.13
2023-12-09T10:45:38.842Z,0.70
2023-12-09T10:47:42.710Z,0.98
2023-12-09T10:49:45.617Z,1.20
2023-12-09T10:51:48.365Z,1.02
2023-12-09T10:53:52.412Z,1.15
2023-12-09T10:55:55.453Z,0.90
2023-12-09T10:57:59.475Z,1.05
2023-12-09T11:00:02.332Z,1.50
2023-12-09T11:02:04.337Z,1.75
2023-12-09T11:04:07.711Z,2.38
2023-12-09T11:06:10.779Z,1.65
2023-12-09T11:08:14.025Z,1.75
2023-12-09T11:10:18.170Z,1.90
2023-12-09T11:12:30.595Z,1.70
2023-12-09T11:14:33.753Z,1.60
2023-12-09T11:16:36.373Z,1.45
2023-12-09T11:18:48.036Z,1.15
2023-12-09T11:20:52.775Z,1.05
2023-12-09T11:22:54.735Z,0.98
2023-12-09T11:24:57.345Z,1.30
2023-12-09T11:27:01.393Z,1.42
2023-12-09T11:29:04.904Z,0.75
2023-12-09T11:31:07.564Z,1.17
2023-12-09T11:33:10.706Z,1.02
2023-12-09T11:35:12.622Z,0.85
2023-12-09T11:37:15.709Z,0.80
2023-12-09T11:39:21.073Z,1.02
2023-12-09T11:41:22.915Z,0.93
2023-12-09T11:43:28.321Z,0.70
2023-12-09T11:45:31.284Z,0.73
2023-12-09T11:47:34.706Z,0.70
2023-12-09T11:49:38.375Z,0.60
2023-12-09T11:51:41.235Z,0.70
2023-12-09T11:53:53.221Z,0.82
2023-12-09T11:55:55.947Z,0.90
2023-12-09T11:57:58.575Z,0.90
2023-12-09T12:00:06.389Z,0.52
2023-12-09T12:02:09.187Z,0.70
2023-12-09T12:04:11.970Z,0.68
2023-12-09T12:06:15.927Z,0.80
2023-12-09T12:08:18.654Z,0.63
2023-12-09T12:10:21.534Z,0.88
2023-12-09T12:12:24.251Z,0.68
2023-12-09T12:14:27.430Z,0.73
2023-12-09T12:16:31.723Z,0.73
2023-12-09T12:18:35.741Z,0.50
2023-12-09T12:20:39.147Z,0.68
2023-12-09T12:22:42.566Z,0.80
2023-12-09T12:24:45.617Z,0.80
2023-12-09T12:26:48.876Z,0.70
2023-12-09T12:28:53.181Z,0.45
2023-12-09T12:30:56.874Z,0.50
2023-12-09T12:33:02.215Z,0.60
2023-12-09T12:35:05.390Z,0.75
2023-12-09T12:37:08.264Z,0.68
2023-12-09T12:39:11.966Z,0.70
2023-12-09T12:41:14.755Z,0.60
2023-12-09T12:43:17.739Z,0.68
2023-12-09T12:45:21.248Z,0.70
2023-12-09T12:47:24.216Z,0.77
2023-12-09T12:49:30.737Z,0.80
2023-12-09T12:51:33.699Z,0.70
2023-12-09T13:09:13.870Z,25.55
2023-12-09T13:11:16.940Z,27.42
2023-12-09T13:13:19.602Z,23.33
2023-12-09T13:21:40.173Z,50.95
2023-12-09T13:23:43.628Z,65.88
2023-12-09T13:25:47.870Z,60.05
2023-12-09T13:34:15.394Z,34.25
2023-12-09T13:36:18.343Z,31.73
2023-12-09T13:38:21.015Z,31.70
2023-12-09T13:44:40.612Z,25.98
2023-12-09T13:46:43.482Z,25.55
2023-12-09T13:48:46.594Z,29.42
2023-12-09T13:50:49.649Z,30.50
2023-12-09T13:52:53.200Z,41.75
2023-12-09T13:54:55.873Z,31.45
2023-12-09T13:56:58.664Z,31.05
2023-12-09T13:59:03.955Z,25.27
2023-12-09T14:01:07.217Z,26.83
2023-12-09T14:03:10.184Z,21.17
2023-12-09T14:05:15.268Z,11.43
2023-12-09T14:07:18.294Z,12.05
2023-12-09T14:09:21.070Z,13.38
2023-12-09T14:11:26.970Z,17.73
2023-12-09T14:13:30.381Z,24.13
2023-12-09T14:15:34.640Z,23.83
2023-12-09T14:17:38.781Z,21.42
2023-12-09T14:19:41.569Z,20.48
2023-12-09T14:21:43.279Z,19.27
2023-12-09T14:23:45.995Z,17.48
2023-12-09T14:25:48.735Z,17.67
2023-12-09T14:27:50.648Z,17.92
2023-12-09T14:29:53.327Z,15.48
2023-12-09T14:31:57.525Z,15.70
2023-12-09T14:33:59.550Z,17.65
2023-12-09T14:36:02.547Z,16.30
2023-12-09T14:38:07.205Z,15.30
2023-12-09T14:40:10.310Z,14.50
2023-12-09T14:42:12.256Z,13.10
2023-12-09T14:44:15.071Z,14.02
2023-12-09T14:46:17.705Z,13.02
2023-12-09T14:48:22.228Z,12.75
2023-12-09T14:50:25.290Z,11.27
2023-12-09T14:52:28.241Z,11.02
2023-12-09T14:54:31.206Z,12.95
2023-12-09T14:56:34.229Z,12.23
2023-12-09T14:58:37.163Z,12.35
2023-12-09T15:00:39.100Z,10.82
2023-12-09T15:02:41.926Z,9.77
2023-12-09T15:04:46.249Z,8.30
2023-12-09T15:06:50.155Z,7.65
2023-12-09T15:08:53.177Z,10.65
2023-12-09T15:10:56.204Z,8.15
2023-12-09T15:12:59.084Z,6.65
2023-12-09T15:15:03.892Z,5.75
2023-12-09T15:17:07.330Z,4.80
2023-12-09T15:19:10.746Z,4.65
2023-12-09T15:21:15.457Z,3.38
2023-12-09T15:23:18.391Z,3.92
2023-12-09T15:25:21.052Z,3.22
2023-12-09T15:27:24.267Z,2.30
2023-12-09T15:29:27.334Z,2.33
2023-12-09T15:31:30.083Z,2.38
2023-12-09T15:33:33.056Z,1.90
2023-12-09T15:35:35.918Z,1.92
2023-12-09T15:37:39.260Z,1.70
2023-12-09T15:39:41.930Z,1.58
2023-12-09T15:41:44.698Z,2.30
2023-12-09T15:43:47.478Z,2.03
2023-12-09T15:47:57.982Z,2.10
2023-12-09T15:50:01.861Z,1.70
2023-12-09T15:52:04.818Z,1.92
2023-12-09T15:54:10.783Z,1.25
2023-12-09T15:56:13.505Z,1.27
2023-12-09T15:58:16.527Z,1.10
2023-12-09T16:00:19.384Z,1.65
2023-12-09T16:02:22.412Z,1.05
2023-12-09T16:04:25.182Z,1.23
2023-12-09T16:06:28.094Z,1.15
2023-12-09T16:08:29.831Z,0.90
2023-12-09T16:10:34.082Z,1.10
2023-12-09T16:12:39.039Z,1.17
2023-12-09T16:14:41.735Z,1.42
2023-12-09T16:16:45.126Z,1.42
2023-12-09T16:18:47.903Z,1.48
2023-12-09T16:20:50.993Z,1.60
2023-12-09T16:22:53.892Z,1.38
2023-12-09T16:24:56.726Z,1.63
2023-12-09T16:27:00.996Z,1.75
2023-12-09T16:29:02.731Z,2.00
2023-12-09T16:31:06.205Z,1.55
2023-12-09T16:33:09.099Z,2.17
2023-12-09T16:35:11.904Z,2.05
2023-12-09T16:37:14.632Z,2.38
2023-12-09T16:39:17.550Z,2.33
2023-12-09T16:41:20.476Z,2.30
2023-12-09T16:43:24.599Z,2.85
2023-12-09T16:45:27.289Z,2.58
2023-12-09T16:47:34.808Z,3.17
2023-12-09T16:49:38.252Z,2.63
2023-12-09T16:51:41.122Z,2.80
2023-12-09T16:53:43.838Z,3.00
2023-12-09T16:55:47.006Z,3.10
2023-12-09T16:57:49.883Z,3.30
2023-12-09T16:59:52.918Z,2.75
2023-12-09T17:01:55.706Z,2.80
2023-12-09T17:03:58.760Z,2.85
2023-12-09T17:06:01.590Z,3.00
2023-12-09T17:08:04.333Z,2.92
2023-12-09T17:10:09.169Z,3.42
2023-12-09T17:12:12.040Z,3.10
2023-12-09T17:14:14.754Z,2.65
2023-12-09T17:16:19.052Z,3.55
2023-12-09T17:18:21.968Z,3.30
2023-12-09T17:20:25.238Z,3.55
2023-12-09T17:22:32.111Z,3.47
2023-12-09T17:24:35.063Z,3.97
2023-12-09T17:26:37.839Z,3.85
2023-12-09T17:28:41.188Z,3.95
2023-12-09T17:30:43.818Z,3.60
2023-12-09T17:32:47.970Z,3.97
2023-12-09T17:34:50.790Z,3.67
2023-12-09T17:36:53.507Z,4.13
2023-12-09T17:38:56.259Z,4.25
2023-12-09T17:40:58.894Z,3.97
2023-12-09T17:43:01.619Z,3.97
2023-12-09T17:45:04.651Z,3.75
2023-12-09T17:47:07.852Z,4.15
2023-12-09T17:49:12.028Z,4.15
2023-12-09T17:51:14.794Z,3.80
2023-12-09T17:53:20.569Z,4.03
2023-12-09T17:55:23.257Z,3.83
2023-12-09T17:57:26.315Z,4.55
2023-12-09T17:59:29.643Z,4.40
2023-12-09T18:01:32.459Z,4.57
2023-12-09T18:03:35.473Z,4.57
2023-12-09T18:05:39.581Z,4.63
2023-12-09T18:07:42.283Z,4.82
2023-12-09T18:09:46.650Z,4.80
2023-12-09T18:11:49.319Z,4.30
2023-12-09T18:13:52.027Z,5.00
2023-12-09T18:15:54.784Z,4.80
2023-12-09T18:17:57.527Z,5.25
2023-12-09T18:20:00.407Z,5.30
2023-12-09T18:22:04.537Z,4.78
2023-12-09T18:24:07.462Z,5.50
2023-12-09T18:26:10.295Z,5.35
2023-12-09T18:28:13.300Z,5.50
2023-12-09T18:30:20.106Z,5.30
2023-12-09T18:32:22.811Z,4.75
2023-12-09T18:34:25.801Z,5.05
2023-12-09T18:36:28.580Z,4.90
2023-12-09T18:38:32.632Z,5.35
2023-12-09T18:40:35.261Z,5.70
2023-12-09T18:42:38.183Z,4.85
2023-12-09T18:44:40.014Z,5.60
2023-12-09T18:46:42.758Z,5.25
2023-12-09T18:48:45.673Z,4.53
2023-12-09T18:50:49.229Z,4.90
2023-12-09T18:52:52.613Z,5.20
2023-12-09T18:54:56.706Z,4.45
2023-12-09T18:56:59.398Z,4.88
2023-12-09T18:59:02.121Z,4.88
2023-12-09T19:01:08.148Z,5.22
2023-12-09T19:03:13.855Z,4.75
2023-12-09T19:05:15.659Z,4.93
2023-12-09T19:07:19.443Z,4.65
2023-12-09T19:09:22.264Z,5.03
2023-12-09T19:11:26.330Z,4.57
2023-12-09T19:13:29.050Z,4.60
2023-12-09T19:15:31.732Z,4.95
2023-12-09T19:17:33.513Z,4.47
2023-12-09T19:19:36.410Z,4.72
2023-12-09T19:21:40.983Z,4.93
2023-12-09T19:23:43.851Z,4.78
2023-12-09T19:25:46.548Z,5.32
2023-12-09T19:27:49.697Z,5.07
2023-12-09T19:29:52.428Z,5.30
2023-12-09T19:31:55.096Z,4.60
2023-12-09T19:33:57.804Z,4.90
2023-12-09T19:36:00.893Z,4.75
2023-12-09T19:38:04.268Z,5.00
2023-12-09T19:40:07.537Z,4.82
2023-12-09T19:42:10.384Z,6.20
2023-12-09T19:44:14.487Z,4.90
2023-12-09T19:46:17.199Z,5.03
2023-12-09T19:48:20.326Z,4.68
2023-12-09T19:50:24.732Z,5.40
2023-12-09T19:52:29.461Z,4.85
2023-12-09T19:54:32.438Z,4.82
2023-12-09T19:56:36.060Z,5.38
2023-12-09T19:58:38.768Z,4.90
2023-12-09T20:00:45.470Z,4.88
2023-12-09T20:02:48.466Z,5.00
2023-12-09T20:04:51.140Z,5.10
2023-12-09T20:06:56.260Z,4.82
2023-12-09T20:08:58.768Z,4.97
2023-12-09T20:11:01.503Z,5.18
2023-12-09T20:13:04.175Z,4.95
2023-12-09T20:15:07.676Z,5.18
2023-12-09T20:17:12.098Z,5.43
2023-12-09T20:19:14.867Z,5.05
2023-12-09T20:21:17.718Z,5.18
2023-12-09T20:23:20.437Z,5.40
2023-12-09T20:25:23.159Z,5.45
2023-12-09T20:27:26.069Z,5.20
2023-12-09T20:29:27.858Z,5.15
2023-12-09T20:31:30.538Z,4.93
2023-12-09T20:33:36.227Z,5.60
2023-12-09T20:35:39.108Z,5.10
2023-12-09T20:37:41.312Z,5.00
2023-12-09T20:39:43.987Z,5.22
2023-12-09T20:41:46.779Z,4.93
2023-12-09T20:43:52.313Z,4.95
2023-12-09T20:45:55.690Z,4.78
2023-12-09T20:47:58.535Z,4.60
2023-12-09T20:50:04.847Z,5.30
2023-12-09T20:52:07.992Z,4.82
2023-12-09T20:54:10.672Z,5.65
2023-12-09T20:56:17.372Z,4.82
2023-12-09T20:58:20.054Z,4.88
2023-12-09T21:00:23.211Z,4.55
2023-12-09T21:02:26.038Z,4.47
2023-12-09T21:04:28.835Z,5.22
2023-12-09T21:06:31.995Z,5.13
2023-12-09T21:08:34.724Z,4.63
2023-12-09T21:10:37.461Z,4.40
2023-12-09T21:12:39.313Z,4.88
2023-12-09T21:14:42.001Z,5.35
2023-12-09T21:16:44.725Z,4.80
2023-12-09T21:18:47.465Z,4.53
2023-12-09T21:20:50.226Z,4.65
2023-12-09T21:22:54.320Z,4.15
2023-12-09T21:24:58.699Z,4.85
2023-12-09T21:27:01.462Z,4.95
2023-12-09T21:29:04.107Z,4.65
2023-12-09T21:31:06.854Z,4.35
2023-12-09T21:33:09.683Z,4.57
2023-12-09T21:35:12.527Z,4.80
2023-12-09T21:37:15.275Z,4.43
2023-12-09T21:39:19.375Z,4.90
2023-12-09T21:41:22.683Z,3.97
2023-12-09T21:43:25.361Z,4.53
2023-12-09T21:45:27.057Z,4.88
2023-12-09T21:47:31.212Z,4.40
2023-12-09T21:49:34.081Z,4.85
2023-12-09T21:51:39.480Z,4.43
2023-12-09T21:53:42.216Z,4.20
2023-12-09T21:55:46.621Z,4.72
2023-12-09T21:57:49.464Z,4.35
2023-12-09T21:59:51.377Z,3.88
2023-12-09T22:01:54.142Z,4.20
2023-12-09T22:03:56.886Z,4.47
2023-12-09T22:05:59.559Z,4.20
2023-12-09T22:08:02.259Z,4.78
2023-12-09T22:10:05.263Z,4.35
2023-12-09T22:12:08.997Z,4.72
2023-12-09T22:14:11.784Z,4.32
2023-12-09T22:16:19.473Z,4.20
2023-12-09T22:18:22.456Z,4.38
2023-12-09T22:20:25.307Z,4.05
2023-12-09T22:22:30.077Z,4.43
2023-12-09T22:24:36.829Z,4.10
2023-12-09T22:26:43.164Z,4.30
2023-12-09T22:28:47.178Z,3.95
2023-12-09T22:30:50.108Z,4.25
2023-12-09T22:32:52.887Z,4.55
2023-12-09T22:34:55.631Z,4.00
2023-12-09T22:36:58.378Z,3.78
2023-12-09T22:39:00.192Z,4.00
2023-12-09T22:41:02.933Z,3.67
2023-12-09T22:43:04.734Z,4.50
2023-12-09T22:45:09.712Z,3.95
2023-12-09T22:47:12.427Z,4.20
2023-12-09T22:49:15.961Z,3.90
2023-12-09T22:51:19.006Z,3.88
2023-12-09T22:53:21.768Z,3.72
2023-12-09T22:55:24.438Z,3.95
2023-12-09T22:57:28.296Z,4.22
2023-12-09T22:59:31.173Z,3.80
2023-12-09T23:01:36.063Z,2.90
2023-12-09T23:03:38.782Z,4.05
2023-12-09T23:05:41.742Z,3.72
2023-12-09T23:07:43.585Z,3.40
2023-12-09T23:09:46.455Z,3.78
2023-12-09T23:11:50.584Z,2.90
2023-12-09T23:13:53.348Z,3.97
2023-12-09T23:15:56.053Z,3.38
2023-12-09T23:18:00.137Z,3.30
2023-12-09T23:20:03.097Z,3.35
2023-12-09T23:22:05.897Z,3.30
2023-12-09T23:24:08.600Z,2.92
2023-12-09T23:26:10.361Z,2.92
2023-12-09T23:28:13.109Z,3.10
2023-12-09T23:30:15.852Z,3.03
2023-12-09T23:32:19.003Z,3.15
2023-12-09T23:34:23.759Z,3.00
2023-12-09T23:36:26.637Z,3.33
2023-12-09T23:38:29.368Z,3.00
2023-12-09T23:40:32.052Z,3.45
2023-12-09T23:42:34.817Z,3.42
2023-12-09T23:44:37.557Z,3.50
2023-12-09T23:46:40.218Z,2.90
2023-12-09T23:48:41.985Z,2.78
2023-12-09T23:50:46.640Z,3.30
2023-12-09T23:52:48.371Z,3.35
2023-12-09T23:54:51.075Z,3.15
2023-12-09T23:56:53.768Z,2.70
2023-12-09T23:58:56.400Z,2.70
